Time;durP1;ratioP1;P1;durP2;ratioP2;P2;SDS_P1;SDS_P2;PMS_P1;PMS_P2;Temp;Humidity;BMP_temperature;BMP_pressure;BME280_temperature;BME280_humidity;BME280_pressure;Samples;Min_cycle;Max_cycle;Signal;HPM_P1;HPM_P2
2021/12/19 00:04:44;;;;;;;16.50;4.37;;;;;;;17.67;40.45;103810.09;5069895;28;20488;-71
2021/12/19 00:09:53;;;;;;;6.93;2.83;;;;;;;17.05;41.72;103805.19;5064228;28;20089;-73
2021/12/19 00:12:19;;;;;;;11.27;3.50;;;;;;;17.58;40.69;103801.22;5055463;28;20438;-73
2021/12/19 00:14:44;;;;;;;7.50;3.27;;;;;;;17.18;41.51;103794.72;5072323;28;20040;-70
2021/12/19 00:17:10;;;;;;;11.50;4.27;;;;;;;17.19;41.28;103786.81;5051048;28;20082;-73
2021/12/19 00:19:35;;;;;;;9.93;3.97;;;;;;;16.99;42.26;103789.25;5055453;28;20115;-72
2021/12/19 00:22:01;;;;;;;8.27;3.63;;;;;;;17.34;41.50;103778.13;5071910;28;20508;-72
2021/12/19 00:24:26;;;;;;;8.93;3.77;;;;;;;16.35;43.11;103787.63;5054152;28;20028;-73
2021/12/19 00:26:52;;;;;;;8.70;3.70;;;;;;;16.63;43.07;103775.63;5066197;28;20463;-73
2021/12/19 00:29:17;;;;;;;11.93;3.93;;;;;;;17.43;41.00;103779.94;5048301;28;20094;-73
2021/12/19 00:31:46;;;;;;;9.73;4.90;;;;;;;17.38;41.12;103776.38;5046635;28;20035;-72
2021/12/19 00:34:12;;;;;;;12.70;3.97;;;;;;;17.53;40.64;103775.63;5041642;28;20081;-73
2021/12/19 00:36:37;;;;;;;9.27;3.53;;;;;;;18.08;39.60;103767.16;5040526;28;20025;-72
2021/12/19 00:39:04;;;;;;;8.43;3.90;;;;;;;17.12;41.42;103772.66;5071659;28;20036;-73
2021/12/19 00:41:29;;;;;;;9.47;4.40;;;;;;;17.47;41.65;103776.47;5048411;28;20028;-73
2021/12/19 00:44:06;;;;;;;7.00;3.43;;;;;;;16.43;42.94;103771.88;5033925;28;20029;-70
2021/12/19 00:46:36;;;;;;;7.80;3.37;;;;;;;17.52;41.42;103773.88;5044201;28;20032;-70
2021/12/19 00:49:02;;;;;;;5.70;2.97;;;;;;;16.69;43.06;103764.28;5039146;28;20068;-73
2021/12/19 00:51:27;;;;;;;5.43;2.90;;;;;;;16.77;43.28;103770.53;5038297;28;20048;-72
2021/12/19 00:53:54;;;;;;;5.80;2.37;;;;;;;15.83;44.74;103757.91;5042034;28;20040;-72
2021/12/19 00:56:20;;;;;;;8.30;3.40;;;;;;;17.12;42.82;103753.28;5040489;28;20040;-72
2021/12/19 00:58:46;;;;;;;6.80;3.10;;;;;;;16.40;43.28;103746.34;5034088;28;20033;-73
2021/12/19 01:01:14;;;;;;;9.03;3.13;;;;;;;16.85;44.10;103746.81;5053096;28;20095;-72
2021/12/19 01:03:44;;;;;;;8.40;3.03;;;;;;;17.27;41.99;103747.25;5063799;28;20039;-72
2021/12/19 01:06:09;;;;;;;6.70;3.23;;;;;;;16.54;42.87;103743.88;5035403;28;20135;-70
2021/12/19 01:08:34;;;;;;;10.00;3.63;;;;;;;16.67;43.38;103747.50;5044472;28;20512;-70
2021/12/19 01:11:00;;;;;;;6.30;3.17;;;;;;;17.22;42.06;103743.66;5041641;28;20402;-72
2021/12/19 01:13:25;;;;;;;7.27;3.33;;;;;;;17.09;42.32;103738.28;5046900;28;20032;-70
2021/12/19 01:15:52;;;;;;;9.07;3.43;;;;;;;17.58;41.74;103742.16;5034006;28;20059;-72
2021/12/19 01:18:17;;;;;;;8.37;3.10;;;;;;;17.56;41.56;103739.50;5038239;28;20032;-72
2021/12/19 01:20:43;;;;;;;6.13;2.97;;;;;;;17.91;40.34;103732.66;5039585;28;20374;-72
2021/12/19 01:23:10;;;;;;;6.30;2.70;;;;;;;17.17;42.82;103733.03;5053302;28;20049;-72
2021/12/19 01:25:36;;;;;;;8.23;2.93;;;;;;;17.23;42.41;103732.22;5051970;28;20127;-72
2021/12/19 01:28:03;;;;;;;8.43;3.13;;;;;;;17.55;41.44;103742.16;5041192;28;20123;-70
2021/12/19 01:30:28;;;;;;;8.13;2.83;;;;;;;17.02;42.58;103731.19;5044911;28;20055;-70
2021/12/19 01:32:54;;;;;;;9.27;3.63;;;;;;;17.33;42.47;103736.69;5050864;28;20059;-70
2021/12/19 01:35:21;;;;;;;7.10;3.10;;;;;;;17.32;42.26;103724.34;5036608;28;20033;-70
2021/12/19 01:37:47;;;;;;;9.90;3.27;;;;;;;17.29;42.23;103729.63;5033765;28;20476;-72
2021/12/19 01:40:15;;;;;;;12.13;3.50;;;;;;;18.09;41.22;103726.59;5044495;28;20029;-70
2021/12/19 01:42:43;;;;;;;8.67;3.00;;;;;;;17.92;40.45;103727.41;5066423;28;20032;-70
2021/12/19 01:45:11;;;;;;;8.80;3.80;;;;;;;16.25;45.93;103719.75;5052557;28;20037;-70
2021/12/19 01:47:37;;;;;;;8.57;3.50;;;;;;;16.39;44.40;103723.44;5033063;28;20033;-70
2021/12/19 01:50:04;;;;;;;11.00;4.23;;;;;;;17.56;42.89;103722.78;5055148;28;20032;-70
2021/12/19 01:52:30;;;;;;;9.07;3.83;;;;;;;17.64;42.56;103715.75;5044822;28;20025;-70
2021/12/19 01:54:57;;;;;;;10.00;3.33;;;;;;;17.61;42.30;103713.97;5059871;28;20124;-70
2021/12/19 01:57:25;;;;;;;11.10;3.77;;;;;;;17.46;42.02;103720.06;5063077;28;20279;-70
2021/12/19 01:59:54;;;;;;;9.63;3.53;;;;;;;17.56;41.79;103713.06;5034802;28;20033;-70
2021/12/19 02:02:20;;;;;;;12.30;4.40;;;;;;;18.38;40.52;103704.63;5052482;28;20020;-70
2021/12/19 02:04:46;;;;;;;8.87;3.37;;;;;;;17.77;41.28;103712.28;5061320;28;20040;-70
2021/12/19 02:07:12;;;;;;;11.97;3.87;;;;;;;17.69;42.41;103714.00;5037398;28;20488;-70
2021/12/19 02:09:39;;;;;;;14.43;3.33;;;;;;;17.57;42.98;103713.94;5066832;28;20069;-70
2021/12/19 02:12:04;;;;;;;8.13;3.70;;;;;;;17.20;43.46;103716.31;5037474;28;20040;-70
2021/12/19 02:14:30;;;;;;;12.80;3.77;;;;;;;17.68;41.85;103711.34;5033737;28;20103;-70
2021/12/19 02:16:55;;;;;;;10.30;3.53;;;;;;;17.56;42.89;103706.91;5039262;28;20036;-70
2021/12/19 02:19:24;;;;;;;9.50;3.20;;;;;;;16.87;44.00;103696.63;5051093;28;20044;-70
2021/12/19 02:21:49;;;;;;;7.97;3.30;;;;;;;17.83;41.84;103699.97;5031499;28;20028;-70
2021/12/19 02:24:15;;;;;;;8.53;4.10;;;;;;;17.48;42.26;103698.03;5063459;28;20674;-70
2021/12/19 02:26:41;;;;;;;11.53;3.03;;;;;;;18.32;41.16;103700.19;5039492;28;20028;-69
2021/12/19 02:29:07;;;;;;;7.90;3.13;;;;;;;17.63;41.60;103700.75;5043751;28;20494;-70
2021/12/19 02:31:33;;;;;;;9.13;3.50;;;;;;;16.68;44.33;103688.56;5046398;28;20032;-70
2021/12/19 02:34:15;;;;;;;8.10;3.17;;;;;;;16.60;44.49;103687.59;5035445;28;20067;-71
2021/12/19 02:50:17;;;;;;;12.40;4.43;;;;;;;18.75;40.41;103679.09;5050010;28;20036;-70
2021/12/19 02:52:43;;;;;;;13.63;4.40;;;;;;;17.88;41.20;103672.66;5033841;28;20072;-70
2021/12/19 02:55:09;;;;;;;10.57;4.83;;;;;;;18.85;40.31;103658.78;5065523;28;20024;-71
2021/12/19 02:57:36;;;;;;;12.10;4.13;;;;;;;18.77;40.46;103656.13;5032755;28;20567;-70
2021/12/19 03:00:06;;;;;;;13.27;4.50;;;;;;;18.56;40.41;103653.47;5033081;28;20025;-70
2021/12/19 03:02:31;;;;;;;11.83;4.40;;;;;;;19.09;39.65;103641.13;5062726;28;20127;-70
2021/12/19 03:05:00;;;;;;;11.07;4.43;;;;;;;19.14;39.26;103642.88;5036199;28;20131;-70
2021/12/19 03:07:27;;;;;;;8.20;3.10;;;;;;;17.72;42.60;103650.56;5051214;28;20028;-70
2021/12/19 03:18:00;;;;;;;5.43;2.30;;;;;;;18.86;40.55;103622.56;5068549;28;20035;-70
2021/12/19 03:20:32;;;;;;;3.07;1.60;;;;;;;19.20;39.97;103622.56;5050267;28;20435;-70
2021/12/19 03:22:59;;;;;;;3.73;1.60;;;;;;;18.20;41.88;103615.47;5057841;28;20041;-70
2021/12/19 03:25:25;;;;;;;3.23;1.20;;;;;;;17.52;44.10;103615.22;5030367;28;20105;-71
2021/12/19 03:27:51;;;;;;;3.43;1.60;;;;;;;18.32;42.39;103610.19;5033708;28;20071;-70
2021/12/19 03:30:17;;;;;;;6.77;2.30;;;;;;;17.44;43.61;103597.53;5029961;28;20021;-70
2021/12/19 03:32:43;;;;;;;5.37;2.00;;;;;;;17.28;43.98;103607.16;5034338;28;20024;-70
2021/12/19 03:35:09;;;;;;;6.13;2.80;;;;;;;16.78;46.07;103595.31;5037694;28;20025;-70
2021/12/19 03:37:35;;;;;;;4.93;2.43;;;;;;;17.61;44.65;103588.78;5038286;28;20067;-70
2021/12/19 03:40:11;;;;;;;7.10;2.70;;;;;;;18.37;42.64;103581.97;5046728;28;20579;-70
2021/12/19 03:42:48;;;;;;;6.90;3.40;;;;;;;18.79;41.77;103582.84;5044723;28;20032;-70
2021/12/19 03:45:18;;;;;;;7.37;3.50;;;;;;;17.75;43.10;103584.44;5043227;28;20025;-71
2021/12/19 03:47:44;;;;;;;10.23;3.53;;;;;;;17.93;43.08;103588.06;5032569;28;20029;-70
2021/12/19 03:50:12;;;;;;;7.43;2.83;;;;;;;17.97;43.98;103584.53;5035001;28;20036;-70
2021/12/19 03:52:38;;;;;;;5.17;2.37;;;;;;;16.83;45.46;103598.00;5049552;28;20036;-71
2021/12/19 03:55:04;;;;;;;7.73;2.37;;;;;;;17.62;44.25;103595.84;5050720;28;20016;-71
2021/12/19 03:57:30;;;;;;;5.87;1.97;;;;;;;17.06;46.45;103595.56;5035218;28;20037;-72
2021/12/19 03:59:55;;;;;;;3.87;1.60;;;;;;;17.72;44.20;103586.19;5035380;28;20749;-70
2021/12/19 04:02:28;;;;;;;4.37;1.37;;;;;;;17.42;44.49;103583.44;5045965;28;20439;-71
2021/12/19 04:04:55;;;;;;;4.57;1.97;;;;;;;17.86;43.37;103579.19;5051005;28;20028;-70
2021/12/19 04:07:22;;;;;;;2.73;1.83;;;;;;;17.79;43.11;103577.38;5040310;28;20033;-71
2021/12/19 04:09:48;;;;;;;3.67;1.60;;;;;;;17.81;43.62;103560.63;5048387;28;20032;-71
2021/12/19 04:12:14;;;;;;;3.47;1.80;;;;;;;18.55;42.21;103565.19;5042649;28;20036;-70
2021/12/19 04:14:39;;;;;;;5.30;1.67;;;;;;;18.90;41.24;103556.34;5033851;28;20041;-70
2021/12/19 04:17:05;;;;;;;3.67;1.53;;;;;;;18.05;42.34;103552.78;5030976;28;20045;-70
2021/12/19 04:19:32;;;;;;;4.83;1.70;;;;;;;17.49;44.79;103560.53;5049587;28;20112;-70
2021/12/19 04:21:59;;;;;;;3.70;2.10;;;;;;;17.32;44.54;103552.53;5051088;28;20033;-70
2021/12/19 04:24:25;;;;;;;5.83;2.03;;;;;;;17.45;44.78;103551.69;5057147;28;20451;-71
2021/12/19 04:26:50;;;;;;;6.07;2.77;;;;;;;17.97;43.26;103550.16;5061068;28;20033;-70
2021/12/19 04:29:16;;;;;;;6.47;2.30;;;;;;;19.45;40.48;103544.69;5064986;28;20499;-71
2021/12/19 04:31:41;;;;;;;3.03;1.70;;;;;;;18.77;41.96;103542.19;5047424;28;20051;-70
2021/12/19 04:34:07;;;;;;;6.97;1.63;;;;;;;18.95;41.40;103543.97;5049413;28;20029;-71
2021/12/19 04:36:37;;;;;;;4.23;1.67;;;;;;;20.07;39.29;103539.06;5044674;28;20033;-70
2021/12/19 04:44:42;;;;;;;3.30;1.50;;;;;;;19.23;40.47;103533.25;5068565;28;20525;-70
2021/12/19 04:53:04;;;;;;;3.40;1.43;;;;;;;19.17;41.52;103528.00;5071823;28;20054;-70
2021/12/19 05:03:44;;;;;;;2.37;1.20;;;;;;;19.11;40.91;103520.97;5067182;28;20048;-70
2021/12/19 05:06:35;;;;;;;3.53;1.30;;;;;;;18.77;42.15;103523.66;5051755;28;20115;-70
2021/12/19 05:14:36;;;;;;;1.20;0.70;;;;;;;18.18;42.69;103532.53;5064742;28;20052;-70
2021/12/19 05:17:06;;;;;;;1.80;0.77;;;;;;;19.03;40.76;103530.69;5033256;28;20119;-70
2021/12/19 05:19:45;;;;;;;1.37;0.80;;;;;;;18.78;41.84;103541.31;5062952;28;20024;-70
2021/12/19 05:22:11;;;;;;;1.20;0.83;;;;;;;18.55;42.15;103533.41;5071818;28;20041;-70
2021/12/19 05:27:06;;;;;;;2.93;1.53;;;;;;;18.69;41.93;103520.13;5068194;28;20032;-70
2021/12/19 05:29:33;;;;;;;3.33;1.53;;;;;;;18.16;43.30;103523.69;5038561;28;20107;-70
2021/12/19 05:31:59;;;;;;;1.30;1.03;;;;;;;17.54;45.22;103531.47;5049766;28;20016;-70
2021/12/19 05:34:26;;;;;;;3.23;1.37;;;;;;;17.41;44.50;103528.78;5052658;28;20449;-70
2021/12/19 05:47:36;;;;;;;1.23;0.40;;;;;;;17.90;43.87;103517.47;5063139;28;20040;-69
2021/12/19 05:50:03;;;;;;;0.70;0.30;;;;;;;17.87;43.89;103521.84;5041003;28;20033;-70
2021/12/19 05:52:28;;;;;;;0.73;0.40;;;;;;;17.12;45.17;103524.25;5051299;28;20637;-70
2021/12/19 05:54:54;;;;;;;0.57;0.50;;;;;;;16.85;45.46;103532.84;5048854;28;20119;-70
2021/12/19 05:57:20;;;;;;;0.90;0.50;;;;;;;18.03;43.85;103518.38;5038481;28;20025;-70
2021/12/19 05:59:45;;;;;;;2.33;0.87;;;;;;;17.00;44.69;103516.25;5050776;28;20037;-70
2021/12/19 06:02:11;;;;;;;1.63;0.70;;;;;;;17.65;44.37;103511.22;5037218;28;20489;-69
2021/12/19 06:04:36;;;;;;;3.20;1.10;;;;;;;17.95;43.06;103510.44;5046555;28;20397;-70
2021/12/19 06:07:01;;;;;;;1.63;1.10;;;;;;;18.48;41.93;103500.75;5041463;28;20040;-70
2021/12/19 06:09:27;;;;;;;1.83;0.97;;;;;;;18.96;41.29;103502.47;5071037;28;20020;-70
2021/12/19 06:11:52;;;;;;;3.30;1.00;;;;;;;19.44;40.51;103495.19;5053156;28;20028;-70
2021/12/19 06:14:18;;;;;;;2.20;1.10;;;;;;;18.81;41.76;103492.75;5050528;28;20027;-70
2021/12/19 06:16:43;;;;;;;3.93;1.60;;;;;;;19.28;40.66;103489.06;5040814;28;20047;-70
2021/12/19 06:19:08;;;;;;;4.27;1.57;;;;;;;19.63;40.26;103495.06;5035758;28;20053;-71
2021/12/19 06:21:34;;;;;;;1.53;0.90;;;;;;;19.26;39.92;103489.94;5048004;28;20036;-71
2021/12/19 06:23:59;;;;;;;2.47;1.23;;;;;;;18.81;41.64;103498.91;5050462;28;20210;-71
2021/12/19 06:26:24;;;;;;;2.13;1.30;;;;;;;19.27;41.03;103491.72;5037911;28;20452;-71
2021/12/19 06:28:50;;;;;;;2.80;1.13;;;;;;;19.54;39.69;103487.19;5051338;28;20028;-71
2021/12/19 06:31:17;;;;;;;1.57;0.67;;;;;;;17.91;43.66;103486.59;5069414;28;20028;-70
2021/12/19 06:33:42;;;;;;;1.60;0.80;;;;;;;18.66;41.48;103485.72;5046903;28;20025;-70
2021/12/19 06:36:09;;;;;;;2.23;0.90;;;;;;;18.64;42.46;103490.13;5050684;28;20035;-70
2021/12/19 06:38:34;;;;;;;3.07;1.20;;;;;;;17.17;45.29;103486.38;5064955;28;20089;-69
2021/12/19 06:41:00;;;;;;;1.23;0.67;;;;;;;17.27;44.46;103477.63;5051756;28;20040;-70
2021/12/19 06:43:26;;;;;;;3.10;0.73;;;;;;;18.54;42.93;103483.09;5042876;28;20032;-70
2021/12/19 06:45:53;;;;;;;2.40;1.10;;;;;;;17.43;44.11;103474.16;5052047;28;20399;-69
2021/12/19 06:48:22;;;;;;;1.23;0.70;;;;;;;18.57;42.66;103469.84;5069063;28;20099;-70
2021/12/19 06:50:48;;;;;;;1.43;0.70;;;;;;;18.28;43.39;103463.69;5050936;28;20140;-69
2021/12/19 06:53:13;;;;;;;3.70;0.93;;;;;;;18.04;43.55;103467.22;5035952;28;20639;-70
2021/12/19 06:55:38;;;;;;;2.03;0.93;;;;;;;18.15;43.34;103469.88;5069311;28;20082;-70
2021/12/19 06:58:04;;;;;;;2.33;1.07;;;;;;;18.51;42.95;103472.50;5032811;28;20440;-70
2021/12/19 07:00:29;;;;;;;1.63;0.67;;;;;;;16.95;44.79;103467.78;5068850;28;20112;-70
2021/12/19 07:02:55;;;;;;;1.67;0.80;;;;;;;18.16;43.02;103476.03;5033537;28;20374;-70
2021/12/19 07:05:21;;;;;;;1.33;0.90;;;;;;;18.20;42.80;103456.63;5052173;28;20028;-70
2021/12/19 07:07:47;;;;;;;2.87;1.17;;;;;;;18.28;42.37;103462.81;5051394;28;20020;-70
2021/12/19 07:10:12;;;;;;;1.43;0.90;;;;;;;17.39;44.35;103456.53;5051920;28;20504;-70
2021/12/19 07:12:38;;;;;;;2.03;1.10;;;;;;;17.07;45.09;103465.19;5043111;28;20067;-70
2021/12/19 07:15:05;;;;;;;1.63;1.03;;;;;;;17.23;45.14;103458.22;5051662;28;20414;-69
2021/12/19 07:17:30;;;;;;;4.80;1.60;;;;;;;18.19;43.84;103454.88;5051795;28;20032;-70
2021/12/19 07:19:55;;;;;;;2.73;1.93;;;;;;;17.84;44.36;103468.94;5036687;28;20032;-70
2021/12/19 07:22:21;;;;;;;7.77;4.27;;;;;;;18.89;41.54;103464.50;5028404;28;20056;-69
2021/12/19 07:24:46;;;;;;;4.87;2.63;;;;;;;19.04;40.93;103457.34;5028060;28;20027;-70
2021/12/19 07:27:13;;;;;;;2.83;1.33;;;;;;;18.65;41.61;103465.41;5033452;28;20040;-69
2021/12/19 07:29:38;;;;;;;2.23;1.10;;;;;;;18.37;42.09;103462.81;5030170;28;20044;-69
2021/12/19 07:32:04;;;;;;;2.10;1.80;;;;;;;19.19;41.04;103451.09;5046292;28;20033;-69
2021/12/19 07:34:33;;;;;;;2.50;1.20;;;;;;;17.96;42.74;103458.41;5044185;28;20025;-70
2021/12/19 07:36:59;;;;;;;1.90;1.20;;;;;;;17.78;43.34;103452.19;5043967;28;20036;-70
2021/12/19 07:42:01;;;;;;;2.40;1.17;;;;;;;17.88;43.97;103454.84;5042353;28;20368;-69
2021/12/19 07:44:26;;;;;;;3.33;1.80;;;;;;;18.44;42.20;103450.44;5030085;28;20381;-70
2021/12/19 07:46:52;;;;;;;4.40;2.80;;;;;;;18.94;40.81;103462.69;5029270;28;20033;-69
2021/12/19 07:49:17;;;;;;;5.30;2.83;;;;;;;18.81;41.32;103459.19;5033454;28;20021;-69
2021/12/19 07:51:43;;;;;;;4.90;2.77;;;;;;;17.97;42.72;103460.19;5042965;28;20507;-69
2021/12/19 07:54:08;;;;;;;2.17;1.20;;;;;;;18.18;42.12;103458.41;5031500;28;20053;-70
2021/12/19 07:56:34;;;;;;;1.87;1.10;;;;;;;19.28;40.24;103440.47;5040966;28;20116;-69
2021/12/19 07:59:00;;;;;;;4.23;0.97;;;;;;;18.66;41.74;103440.69;5035286;28;20151;-70
2021/12/19 08:01:25;;;;;;;3.30;1.00;;;;;;;17.89;43.13;103441.59;5041702;28;20104;-69
2021/12/19 08:03:51;;;;;;;2.43;1.23;;;;;;;19.02;40.36;103441.47;5044566;28;20485;-69
2021/12/19 08:06:16;;;;;;;4.40;1.60;;;;;;;18.94;40.55;103437.97;5030289;28;20523;-69
2021/12/19 08:08:47;;;;;;;1.63;1.03;;;;;;;18.58;41.66;103443.34;5028121;28;20025;-69
2021/12/19 08:13:56;;;;;;;3.63;1.57;;;;;;;18.14;43.08;103442.50;5043079;28;20102;-69
2021/12/19 08:16:21;;;;;;;2.97;1.37;;;;;;;18.73;41.52;103437.13;5046367;28;20564;-69
2021/12/19 08:18:52;;;;;;;2.23;1.37;;;;;;;19.20;40.78;103431.66;5039605;28;20029;-69
2021/12/19 08:21:18;;;;;;;5.90;4.10;;;;;;;17.86;43.05;103438.97;5039981;28;20061;-69
2021/12/19 08:23:43;;;;;;;2.43;1.80;;;;;;;17.54;44.21;103444.19;5038808;28;20077;-69
2021/12/19 08:26:08;;;;;;;4.50;2.70;;;;;;;17.76;43.45;103443.38;5034224;28;20083;-69
2021/12/19 08:28:34;;;;;;;4.17;1.87;;;;;;;17.94;43.57;103431.06;5047888;28;20455;-69
2021/12/19 08:30:59;;;;;;;1.93;1.43;;;;;;;18.14;42.52;103431.06;5031761;28;20037;-69
2021/12/19 08:33:24;;;;;;;4.37;1.93;;;;;;;18.69;41.69;103422.13;5048435;28;20481;-69
2021/12/19 08:35:50;;;;;;;5.13;3.40;;;;;;;18.48;41.58;103426.59;5038129;28;20116;-69
2021/12/19 08:38:15;;;;;;;4.63;2.83;;;;;;;18.94;40.80;103436.19;5044093;28;20048;-69
2021/12/19 08:40:41;;;;;;;2.60;2.40;;;;;;;18.49;42.03;103443.34;5052657;28;20063;-69
2021/12/19 08:43:07;;;;;;;3.20;1.77;;;;;;;19.33;40.38;103438.69;5036270;28;20339;-69
2021/12/19 08:45:32;;;;;;;1.97;0.67;;;;;;;18.17;42.97;103435.47;5033141;28;20021;-70
2021/12/19 08:47:58;;;;;;;2.63;0.93;;;;;;;17.97;43.49;103431.94;5032721;28;20143;-69
2021/12/19 08:50:24;;;;;;;1.93;0.77;;;;;;;17.77;44.09;103433.66;5033350;28;20477;-69
2021/12/19 08:52:52;;;;;;;2.20;0.90;;;;;;;17.77;44.15;103426.59;5036399;28;20091;-69
2021/12/19 08:55:19;;;;;;;2.40;0.73;;;;;;;16.89;46.38;103418.44;5044687;28;20615;-69
2021/12/19 08:57:44;;;;;;;4.10;0.93;;;;;;;18.66;42.26;103419.50;5032441;28;20099;-68
2021/12/19 09:00:11;;;;;;;1.60;1.40;;;;;;;19.13;41.54;103415.78;5032106;28;20497;-68
2021/12/19 09:02:38;;;;;;;0.93;0.83;;;;;;;18.36;43.00;103415.16;5034132;28;20023;-69
2021/12/19 09:05:05;;;;;;;1.57;1.10;;;;;;;19.02;41.66;103411.44;5035802;28;20029;-68
2021/12/19 09:07:30;;;;;;;1.07;0.80;;;;;;;19.50;41.40;103410.25;5034695;28;20040;-68
2021/12/19 09:09:55;;;;;;;0.60;0.60;;;;;;;19.43;40.91;103411.19;5038896;28;20029;-69
2021/12/19 09:12:21;;;;;;;1.40;0.90;;;;;;;18.27;43.25;103422.22;5049155;28;20112;-69
2021/12/19 09:14:46;;;;;;;1.27;0.73;;;;;;;19.45;40.74;103417.38;5035407;28;20029;-69
2021/12/19 09:17:12;;;;;;;2.57;1.33;;;;;;;18.13;43.32;103424.91;5049785;28;20079;-69
2021/12/19 09:19:37;;;;;;;36.23;14.27;;;;;;;17.86;44.02;103424.84;5048688;28;20028;-69
2021/12/19 09:22:04;;;;;;;11.10;4.00;;;;;;;19.17;42.26;103411.34;5032947;28;20080;-69
2021/12/19 09:24:29;;;;;;;1.90;1.17;;;;;;;18.64;43.11;103421.25;5052037;28;20031;-69
2021/12/19 09:26:55;;;;;;;1.90;1.10;;;;;;;18.63;42.86;103420.38;5046251;28;20377;-69
2021/12/19 09:29:20;;;;;;;2.63;1.10;;;;;;;19.31;40.86;103413.94;5061960;28;20025;-69
2021/12/19 09:31:46;;;;;;;4.47;3.00;;;;;;;19.36;41.10;103413.88;5036515;28;20028;-69
2021/12/19 09:34:11;;;;;;;3.23;1.93;;;;;;;19.07;41.55;103410.53;5044675;28;20503;-69
2021/12/19 09:36:37;;;;;;;5.63;2.97;;;;;;;18.68;43.43;103401.81;5053752;28;20088;-69
2021/12/19 09:39:04;;;;;;;1.27;1.00;;;;;;;17.64;45.11;103414.25;5049657;28;20037;-69
2021/12/19 09:41:33;;;;;;;3.30;1.10;;;;;;;18.14;44.24;103405.47;5045351;28;20083;-69
2021/12/19 09:44:03;;;;;;;2.37;1.07;;;;;;;18.05;43.89;103405.50;5049466;28;20396;-69
2021/12/19 09:46:35;;;;;;;2.50;1.10;;;;;;;19.03;42.80;103403.47;5052140;28;20035;-68
2021/12/19 09:49:00;;;;;;;5.17;1.00;;;;;;;19.21;41.88;103406.94;5070769;28;20031;-69
2021/12/19 09:51:25;;;;;;;2.60;0.70;;;;;;;19.69;41.07;103415.44;5052495;28;20411;-69
2021/12/19 09:53:51;;;;;;;1.13;1.00;;;;;;;19.57;41.09;103410.22;5042020;28;20028;-69
2021/12/19 09:56:16;;;;;;;1.00;0.90;;;;;;;18.99;42.23;103404.38;5045985;28;20021;-69
2021/12/19 09:58:42;;;;;;;4.40;2.03;;;;;;;18.98;42.02;103421.16;5056398;28;20492;-69
2021/12/19 10:01:11;;;;;;;4.13;2.37;;;;;;;19.58;41.52;103412.00;5059750;28;20129;-69
2021/12/19 10:03:37;;;;;;;2.60;1.67;;;;;;;18.32;43.95;103408.97;5043613;28;20025;-69
2021/12/19 10:06:20;;;;;;;3.50;2.13;;;;;;;18.65;42.98;103412.41;5067708;28;20113;-68
2021/12/19 10:08:51;;;;;;;1.07;0.90;;;;;;;18.25;44.14;103410.75;5032879;28;20040;-69
2021/12/19 10:11:48;;;;;;;0.60;0.60;;;;;;;19.20;42.27;103407.81;5058401;28;20170;-69
2021/12/19 10:14:45;;;;;;;1.60;1.13;;;;;;;18.61;42.66;103410.66;5034656;28;20035;-69
2021/12/19 10:17:19;;;;;;;0.93;0.83;;;;;;;19.11;41.21;103399.03;5032672;28;20111;-69
2021/12/19 10:19:47;;;;;;;0.70;0.70;;;;;;;19.15;41.72;103398.13;5049576;28;20479;-69
2021/12/19 10:22:24;;;;;;;1.80;1.10;;;;;;;18.89;41.75;103385.00;5038111;28;20053;-69
2021/12/19 10:24:51;;;;;;;4.70;1.90;;;;;;;18.68;42.39;103380.63;5030308;28;20121;-69
2021/12/19 10:27:54;;;;;;;2.93;1.17;;;;;;;19.00;41.59;103387.59;5039033;28;20041;-69
2021/12/19 10:30:21;;;;;;;1.07;0.70;;;;;;;18.27;43.22;103390.47;4939840;28;20042;-69
2021/12/19 10:32:55;;;;;;;3.73;0.63;;;;;;;18.97;41.95;103387.59;5030042;28;20053;-69
2021/12/19 10:35:28;;;;;;;0.90;0.90;;;;;;;19.29;41.04;103390.06;5035455;28;20021;-69
2021/12/19 10:37:54;;;;;;;0.60;0.60;;;;;;;20.12;39.14;103377.94;5035895;28;20036;-69
2021/12/19 10:40:20;;;;;;;1.43;0.80;;;;;;;20.23;39.07;103369.84;5034860;28;20025;-69
2021/12/19 10:42:56;;;;;;;1.67;1.50;;;;;;;20.10;39.17;103374.44;5036949;28;20087;-69
2021/12/19 10:45:34;;;;;;;2.17;1.30;;;;;;;19.89;39.79;103369.31;5038643;28;20041;-69
2021/12/19 10:48:31;;;;;;;1.17;0.70;;;;;;;19.14;41.23;103368.97;5037035;28;20468;-69
2021/12/19 10:50:59;;;;;;;3.97;1.03;;;;;;;19.88;39.98;103365.78;5037394;28;20389;-69
2021/12/19 10:53:38;;;;;;;1.57;1.07;;;;;;;20.38;38.70;103352.88;5035406;28;20031;-69
2021/12/19 10:56:08;;;;;;;5.47;4.10;;;;;;;19.68;40.46;103344.69;5028867;28;20490;-70
2021/12/19 10:58:42;;;;;;;4.57;2.00;;;;;;;19.29;41.25;103342.34;5043525;28;20127;-69
2021/12/19 11:01:16;;;;;;;9.00;2.10;;;;;;;18.72;41.98;103345.28;5037431;28;20501;-69
2021/12/19 11:03:44;;;;;;;8.27;2.33;;;;;;;18.57;42.53;103340.06;5036919;28;20477;-69
2021/12/19 11:06:19;;;;;;;4.83;2.10;;;;;;;19.27;41.50;103332.63;5028407;28;20033;-69
2021/12/19 11:08:45;;;;;;;6.17;2.00;;;;;;;17.60;43.87;103343.75;5027714;28;20021;-69
2021/12/19 11:11:12;;;;;;;5.33;1.90;;;;;;;17.25;45.85;103336.63;5037630;28;20124;-69
2021/12/19 11:13:38;;;;;;;6.07;2.77;;;;;;;18.86;41.97;103325.78;5037641;28;20066;-69
2021/12/19 11:16:04;;;;;;;3.53;2.10;;;;;;;18.74;41.72;103332.94;5041649;28;20397;-69
2021/12/19 11:18:30;;;;;;;4.73;2.40;;;;;;;18.46;41.93;103317.16;5046218;28;20400;-69
2021/12/19 11:20:57;;;;;;;4.87;2.67;;;;;;;19.03;41.21;103323.97;5028621;28;20120;-69
2021/12/19 11:23:26;;;;;;;8.37;4.20;;;;;;;20.21;38.36;103313.25;5034502;28;20382;-69
2021/12/19 11:25:51;;;;;;;10.17;4.53;;;;;;;19.65;39.02;103312.91;5035585;28;20033;-70
2021/12/19 11:28:17;;;;;;;7.63;2.60;;;;;;;18.24;42.54;103304.88;5040411;28;20024;-69
2021/12/19 11:30:43;;;;;;;6.63;2.40;;;;;;;17.97;42.38;103297.00;5033294;28;20036;-69
2021/12/19 11:33:36;;;;;;;5.60;2.53;;;;;;;18.38;42.12;103302.16;5042845;28;20021;-70
2021/12/19 11:36:03;;;;;;;7.87;3.07;;;;;;;18.36;41.98;103294.22;5037736;28;20045;-69
2021/12/19 11:38:30;;;;;;;13.07;3.57;;;;;;;18.53;42.54;103295.94;5042400;28;20032;-69
2021/12/19 11:40:55;;;;;;;9.50;3.17;;;;;;;19.00;40.94;103292.19;5042948;28;20033;-69
2021/12/19 11:43:21;;;;;;;6.23;2.60;;;;;;;18.00;42.96;103285.53;5041125;28;20032;-69
2021/12/19 11:45:58;;;;;;;8.20;4.37;;;;;;;18.90;40.70;103285.19;5039181;28;20030;-69
2021/12/19 11:50:55;;;;;;;6.30;2.53;;;;;;;18.94;39.71;103286.91;5039206;28;20497;-70
2021/12/19 11:53:31;;;;;;;6.47;2.00;;;;;;;18.70;40.40;103288.78;5028078;28;20433;-69
2021/12/19 11:56:09;;;;;;;6.50;2.83;;;;;;;19.40;39.41;103285.69;5018755;28;20416;-69
2021/12/19 11:58:52;;;;;;;11.83;3.10;;;;;;;18.85;39.88;103277.22;5037916;28;20032;-69
2021/12/19 12:01:28;;;;;;;4.63;2.50;;;;;;;19.13;39.08;103279.72;5033782;28;20436;-70
2021/12/19 12:03:59;;;;;;;6.60;2.60;;;;;;;18.66;40.86;103271.16;5049135;28;20441;-69
2021/12/19 12:06:42;;;;;;;8.33;2.30;;;;;;;19.21;39.19;103269.06;5044810;28;20508;-69
2021/12/19 12:09:11;;;;;;;;;;;;;;;18.53;40.52;103269.44;5031741;28;20036;-69
2021/12/19 12:12:03;;;;;;;5.83;1.93;;;;;;;19.40;39.69;103254.75;5044699;28;19924;-69
2021/12/19 12:14:34;;;;;;;6.15;1.88;;;;;;;18.11;42.09;103256.41;5044531;28;20103;-70
2021/12/19 12:17:09;;;;;;;12.67;2.67;;;;;;;18.16;42.67;103261.66;5044287;28;20095;-69
2021/12/19 12:19:40;;;;;;;8.57;2.37;;;;;;;17.29;43.48;103267.91;5035322;28;20029;-69
2021/12/19 12:22:24;;;;;;;10.30;3.20;;;;;;;18.62;40.69;103250.88;5040481;28;20063;-69
2021/12/19 12:25:03;;;;;;;8.13;3.03;;;;;;;18.85;40.49;103249.84;5049363;28;20044;-70
2021/12/19 12:27:37;;;;;;;3.90;1.80;;;;;;;17.00;44.21;103246.75;5050692;28;20112;-69
2021/12/19 12:30:12;;;;;;;5.13;2.53;;;;;;;18.68;41.41;103245.53;5041872;28;20484;-69
2021/12/19 12:32:37;;;;;;;3.60;1.67;;;;;;;17.04;44.01;103251.16;5038460;28;20029;-69
2021/12/19 12:35:03;;;;;;;3.70;2.00;;;;;;;18.10;41.50;103242.25;5049190;28;20028;-69
2021/12/19 12:37:29;;;;;;;5.67;2.53;;;;;;;17.88;42.47;103232.59;5038614;28;20081;-69
2021/12/19 12:40:28;;;;;;;4.43;2.17;;;;;;;18.36;41.53;103236.00;5033974;28;20437;-70
2021/12/19 12:43:00;;;;;;;4.80;1.70;;;;;;;18.52;41.64;103235.91;5050710;28;20028;-71